sensor_id;sensor_type;location;lat;lon;timestamp;P1;durP1;ratioP1;P2;durP2;ratioP2
44228;SDS011;29904;51.058;5.378;2023-07-20T00:00:25;3.00;;;1.57;;
44228;SDS011;29904;51.058;5.378;2023-07-20T00:02:51;3.43;;;1.80;;
44228;SDS011;29904;51.058;5.378;2023-07-20T00:05:17;4.75;;;1.67;;
44228;SDS011;29904;51.058;5.378;2023-07-20T00:07:43;3.95;;;1.60;;
44228;SDS011;29904;51.058;5.378;2023-07-20T00:10:09;3.28;;;1.67;;
44228;SDS011;29904;51.058;5.378;2023-07-20T00:12:35;2.78;;;1.60;;
44228;SDS011;29904;51.058;5.378;2023-07-20T00:15:01;4.83;;;1.73;;
44228;SDS011;29904;51.058;5.378;2023-07-20T00:17:26;4.93;;;1.80;;
44228;SDS011;29904;51.058;5.378;2023-07-20T00:19:52;3.67;;;1.40;;
44228;SDS011;29904;51.058;5.378;2023-07-20T00:22:18;3.13;;;1.40;;
44228;SDS011;29904;51.058;5.378;2023-07-20T00:24:43;3.60;;;1.40;;
44228;SDS011;29904;51.058;5.378;2023-07-20T00:27:09;2.13;;;1.35;;
44228;SDS011;29904;51.058;5.378;2023-07-20T00:29:35;2.93;;;1.30;;
44228;SDS011;29904;51.058;5.378;2023-07-20T00:32:00;4.00;;;1.25;;
44228;SDS011;29904;51.058;5.378;2023-07-20T00:34:26;4.25;;;1.52;;
44228;SDS011;29904;51.058;5.378;2023-07-20T00:36:52;4.40;;;1.60;;
44228;SDS011;29904;51.058;5.378;2023-07-20T00:39:18;3.10;;;1.60;;
44228;SDS011;29904;51.058;5.378;2023-07-20T00:41:43;3.08;;;1.48;;
44228;SDS011;29904;51.058;5.378;2023-07-20T00:44:09;5.10;;;1.70;;
44228;SDS011;29904;51.058;5.378;2023-07-20T00:46:35;3.50;;;1.70;;
44228;SDS011;29904;51.058;5.378;2023-07-20T00:49:00;2.58;;;1.58;;
44228;SDS011;29904;51.058;5.378;2023-07-20T00:51:26;2.95;;;1.60;;
44228;SDS011;29904;51.058;5.378;2023-07-20T00:53:53;3.58;;;1.75;;
44228;SDS011;29904;51.058;5.378;2023-07-20T00:56:19;4.70;;;1.60;;
44228;SDS011;29904;51.058;5.378;2023-07-20T00:58:44;3.53;;;1.95;;
44228;SDS011;29904;51.058;5.378;2023-07-20T01:01:10;4.13;;;1.80;;
44228;SDS011;29904;51.058;5.378;2023-07-20T01:03:37;3.15;;;1.70;;
44228;SDS011;29904;51.058;5.378;2023-07-20T01:11:19;5.05;;;1.90;;
44228;SDS011;29904;51.058;5.378;2023-07-20T01:13:56;3.35;;;1.80;;
44228;SDS011;29904;51.058;5.378;2023-07-20T01:16:23;5.03;;;1.92;;
44228;SDS011;29904;51.058;5.378;2023-07-20T01:18:49;4.53;;;1.80;;
44228;SDS011;29904;51.058;5.378;2023-07-20T01:21:18;3.93;;;1.80;;
44228;SDS011;29904;51.058;5.378;2023-07-20T01:27:00;4.68;;;1.88;;
44228;SDS011;29904;51.058;5.378;2023-07-20T01:32:35;5.32;;;1.80;;
44228;SDS011;29904;51.058;5.378;2023-07-20T01:35:04;4.15;;;1.70;;
44228;SDS011;29904;51.058;5.378;2023-07-20T01:37:32;4.60;;;1.80;;
44228;SDS011;29904;51.058;5.378;2023-07-20T01:39:59;3.83;;;1.80;;
44228;SDS011;29904;51.058;5.378;2023-07-20T01:42:26;4.50;;;1.80;;
44228;SDS011;29904;51.058;5.378;2023-07-20T01:44:52;3.90;;;1.70;;
44228;SDS011;29904;51.058;5.378;2023-07-20T01:47:18;4.15;;;1.73;;
44228;SDS011;29904;51.058;5.378;2023-07-20T01:49:44;4.17;;;1.80;;
44228;SDS011;29904;51.058;5.378;2023-07-20T01:52:10;3.87;;;1.83;;
44228;SDS011;29904;51.058;5.378;2023-07-20T01:54:35;3.28;;;1.40;;
44228;SDS011;29904;51.058;5.378;2023-07-20T01:57:02;4.38;;;1.65;;
44228;SDS011;29904;51.058;5.378;2023-07-20T01:59:28;5.03;;;1.90;;
44228;SDS011;29904;51.058;5.378;2023-07-20T02:01:53;3.65;;;1.80;;
44228;SDS011;29904;51.058;5.378;2023-07-20T02:04:19;4.63;;;1.90;;
44228;SDS011;29904;51.058;5.378;2023-07-20T02:06:45;4.67;;;1.90;;
44228;SDS011;29904;51.058;5.378;2023-07-20T02:09:11;5.10;;;1.98;;
44228;SDS011;29904;51.058;5.378;2023-07-20T02:11:36;4.90;;;2.28;;
44228;SDS011;29904;51.058;5.378;2023-07-20T02:14:02;3.17;;;1.70;;
44228;SDS011;29904;51.058;5.378;2023-07-20T02:16:28;3.00;;;1.77;;
44228;SDS011;29904;51.058;5.378;2023-07-20T02:18:53;4.40;;;1.80;;
44228;SDS011;29904;51.058;5.378;2023-07-20T02:21:22;4.28;;;1.90;;
44228;SDS011;29904;51.058;5.378;2023-07-20T02:23:48;3.67;;;1.65;;
44228;SDS011;29904;51.058;5.378;2023-07-20T02:26:13;4.15;;;1.90;;
44228;SDS011;29904;51.058;5.378;2023-07-20T02:28:40;5.18;;;1.80;;
44228;SDS011;29904;51.058;5.378;2023-07-20T02:31:06;4.47;;;1.75;;
44228;SDS011;29904;51.058;5.378;2023-07-20T02:33:32;4.32;;;1.95;;
44228;SDS011;29904;51.058;5.378;2023-07-20T02:35:58;5.37;;;1.90;;
44228;SDS011;29904;51.058;5.378;2023-07-20T02:38:23;3.42;;;1.92;;
44228;SDS011;29904;51.058;5.378;2023-07-20T02:40:49;5.10;;;2.05;;
44228;SDS011;29904;51.058;5.378;2023-07-20T02:43:15;4.50;;;2.25;;
44228;SDS011;29904;51.058;5.378;2023-07-20T02:45:41;4.43;;;2.00;;
44228;SDS011;29904;51.058;5.378;2023-07-20T02:48:07;4.30;;;1.92;;
44228;SDS011;29904;51.058;5.378;2023-07-20T02:50:33;4.68;;;2.00;;
44228;SDS011;29904;51.058;5.378;2023-07-20T02:53:00;4.03;;;1.90;;
44228;SDS011;29904;51.058;5.378;2023-07-20T02:55:26;4.57;;;2.30;;
44228;SDS011;29904;51.058;5.378;2023-07-20T02:57:51;4.07;;;2.00;;
44228;SDS011;29904;51.058;5.378;2023-07-20T03:00:17;6.18;;;2.83;;
44228;SDS011;29904;51.058;5.378;2023-07-20T03:02:44;6.03;;;2.43;;
44228;SDS011;29904;51.058;5.378;2023-07-20T03:05:13;4.32;;;2.13;;
44228;SDS011;29904;51.058;5.378;2023-07-20T03:07:39;5.25;;;2.30;;
44228;SDS011;29904;51.058;5.378;2023-07-20T03:10:05;5.47;;;2.42;;
44228;SDS011;29904;51.058;5.378;2023-07-20T03:12:34;5.23;;;2.17;;
44228;SDS011;29904;51.058;5.378;2023-07-20T03:15:01;5.13;;;2.55;;
44228;SDS011;29904;51.058;5.378;2023-07-20T03:17:27;4.55;;;2.40;;
44228;SDS011;29904;51.058;5.378;2023-07-20T03:19:53;4.32;;;2.53;;
44228;SDS011;29904;51.058;5.378;2023-07-20T03:22:19;4.53;;;2.40;;
44228;SDS011;29904;51.058;5.378;2023-07-20T03:24:46;5.37;;;2.27;;
44228;SDS011;29904;51.058;5.378;2023-07-20T03:27:12;4.77;;;2.70;;
44228;SDS011;29904;51.058;5.378;2023-07-20T03:29:38;5.60;;;3.10;;
44228;SDS011;29904;51.058;5.378;2023-07-20T03:32:04;7.28;;;3.22;;
44228;SDS011;29904;51.058;5.378;2023-07-20T03:34:30;7.70;;;3.27;;
44228;SDS011;29904;51.058;5.378;2023-07-20T03:36:56;5.90;;;3.13;;
44228;SDS011;29904;51.058;5.378;2023-07-20T03:39:22;7.40;;;3.10;;
44228;SDS011;29904;51.058;5.378;2023-07-20T03:41:48;5.10;;;2.75;;
44228;SDS011;29904;51.058;5.378;2023-07-20T03:44:13;6.55;;;3.00;;
44228;SDS011;29904;51.058;5.378;2023-07-20T03:46:39;6.47;;;2.97;;
44228;SDS011;29904;51.058;5.378;2023-07-20T03:49:05;7.60;;;3.28;;
44228;SDS011;29904;51.058;5.378;2023-07-20T03:51:31;6.82;;;3.03;;
44228;SDS011;29904;51.058;5.378;2023-07-20T03:53:57;7.03;;;3.30;;
44228;SDS011;29904;51.058;5.378;2023-07-20T03:56:23;9.10;;;3.93;;
44228;SDS011;29904;51.058;5.378;2023-07-20T03:58:49;5.27;;;3.10;;
44228;SDS011;29904;51.058;5.378;2023-07-20T04:01:15;7.67;;;3.73;;
44228;SDS011;29904;51.058;5.378;2023-07-20T04:03:42;7.90;;;3.63;;
44228;SDS011;29904;51.058;5.378;2023-07-20T04:06:08;10.50;;;5.80;;
44228;SDS011;29904;51.058;5.378;2023-07-20T04:08:34;10.02;;;5.57;;
44228;SDS011;29904;51.058;5.378;2023-07-20T04:11:03;9.43;;;5.13;;
44228;SDS011;29904;51.058;5.378;2023-07-20T04:13:29;11.00;;;6.30;;
44228;SDS011;29904;51.058;5.378;2023-07-20T04:15:58;11.93;;;5.47;;
44228;SDS011;29904;51.058;5.378;2023-07-20T04:18:24;10.82;;;5.97;;
44228;SDS011;29904;51.058;5.378;2023-07-20T04:20:49;8.90;;;5.53;;
44228;SDS011;29904;51.058;5.378;2023-07-20T04:23:15;10.43;;;5.77;;
44228;SDS011;29904;51.058;5.378;2023-07-20T04:25:41;8.27;;;5.70;;
44228;SDS011;29904;51.058;5.378;2023-07-20T04:28:07;11.60;;;5.60;;
44228;SDS011;29904;51.058;5.378;2023-07-20T04:30:34;8.48;;;5.32;;
44228;SDS011;29904;51.058;5.378;2023-07-20T04:33:01;8.97;;;5.57;;
44228;SDS011;29904;51.058;5.378;2023-07-20T04:38:14;10.80;;;5.35;;
44228;SDS011;29904;51.058;5.378;2023-07-20T04:40:46;11.07;;;5.70;;
44228;SDS011;29904;51.058;5.378;2023-07-20T04:43:13;8.15;;;5.35;;
44228;SDS011;29904;51.058;5.378;2023-07-20T04:45:40;8.32;;;4.70;;
44228;SDS011;29904;51.058;5.378;2023-07-20T04:48:08;9.30;;;5.00;;
44228;SDS011;29904;51.058;5.378;2023-07-20T04:50:38;10.05;;;5.30;;
44228;SDS011;29904;51.058;5.378;2023-07-20T04:53:08;8.73;;;5.00;;
44228;SDS011;29904;51.058;5.378;2023-07-20T04:55:40;6.82;;;4.88;;
44228;SDS011;29904;51.058;5.378;2023-07-20T04:58:06;9.25;;;5.70;;
44228;SDS011;29904;51.058;5.378;2023-07-20T05:00:32;7.95;;;5.40;;
44228;SDS011;29904;51.058;5.378;2023-07-20T05:02:59;8.38;;;5.35;;
44228;SDS011;29904;51.058;5.378;2023-07-20T05:05:25;8.98;;;5.53;;
44228;SDS011;29904;51.058;5.378;2023-07-20T05:07:50;9.25;;;5.45;;
44228;SDS011;29904;51.058;5.378;2023-07-20T05:10:17;9.85;;;5.30;;
44228;SDS011;29904;51.058;5.378;2023-07-20T05:12:42;9.30;;;5.60;;
44228;SDS011;29904;51.058;5.378;2023-07-20T05:15:08;11.07;;;7.03;;
44228;SDS011;29904;51.058;5.378;2023-07-20T05:17:34;16.85;;;9.45;;
44228;SDS011;29904;51.058;5.378;2023-07-20T05:20:00;16.47;;;9.53;;
44228;SDS011;29904;51.058;5.378;2023-07-20T05:22:26;14.93;;;9.10;;
44228;SDS011;29904;51.058;5.378;2023-07-20T05:24:51;17.00;;;9.38;;
44228;SDS011;29904;51.058;5.378;2023-07-20T05:27:17;17.00;;;10.33;;
44228;SDS011;29904;51.058;5.378;2023-07-20T05:29:44;20.92;;;11.32;;
44228;SDS011;29904;51.058;5.378;2023-07-20T05:32:10;17.42;;;10.73;;
44228;SDS011;29904;51.058;5.378;2023-07-20T05:34:35;18.63;;;12.57;;
44228;SDS011;29904;51.058;5.378;2023-07-20T05:37:01;24.47;;;13.90;;
44228;SDS011;29904;51.058;5.378;2023-07-20T05:39:27;23.00;;;13.93;;
44228;SDS011;29904;51.058;5.378;2023-07-20T05:41:52;24.20;;;14.70;;
44228;SDS011;29904;51.058;5.378;2023-07-20T05:44:18;29.73;;;16.05;;
44228;SDS011;29904;51.058;5.378;2023-07-20T05:46:44;24.73;;;15.25;;
44228;SDS011;29904;51.058;5.378;2023-07-20T05:49:09;22.40;;;14.23;;
44228;SDS011;29904;51.058;5.378;2023-07-20T05:51:35;24.23;;;14.93;;
44228;SDS011;29904;51.058;5.378;2023-07-20T05:54:01;20.33;;;12.85;;
44228;SDS011;29904;51.058;5.378;2023-07-20T05:56:27;19.00;;;12.43;;
44228;SDS011;29904;51.058;5.378;2023-07-20T05:58:53;18.20;;;12.60;;
44228;SDS011;29904;51.058;5.378;2023-07-20T06:01:18;16.83;;;11.95;;
44228;SDS011;29904;51.058;5.378;2023-07-20T06:03:44;20.33;;;13.30;;
44228;SDS011;29904;51.058;5.378;2023-07-20T06:06:10;16.95;;;11.93;;
44228;SDS011;29904;51.058;5.378;2023-07-20T06:08:37;17.88;;;12.40;;
44228;SDS011;29904;51.058;5.378;2023-07-20T06:11:03;19.80;;;12.95;;
44228;SDS011;29904;51.058;5.378;2023-07-20T06:13:29;16.55;;;10.68;;
44228;SDS011;29904;51.058;5.378;2023-07-20T06:15:54;14.80;;;10.03;;
44228;SDS011;29904;51.058;5.378;2023-07-20T06:18:23;13.45;;;9.50;;
44228;SDS011;29904;51.058;5.378;2023-07-20T06:20:49;12.35;;;9.10;;
44228;SDS011;29904;51.058;5.378;2023-07-20T06:23:16;12.90;;;8.77;;
44228;SDS011;29904;51.058;5.378;2023-07-20T06:25:43;11.07;;;8.00;;
44228;SDS011;29904;51.058;5.378;2023-07-20T06:28:09;15.80;;;9.43;;
44228;SDS011;29904;51.058;5.378;2023-07-20T06:30:35;11.10;;;8.60;;
44228;SDS011;29904;51.058;5.378;2023-07-20T06:33:00;11.10;;;8.00;;
44228;SDS011;29904;51.058;5.378;2023-07-20T06:35:26;13.53;;;9.23;;
44228;SDS011;29904;51.058;5.378;2023-07-20T06:37:52;11.20;;;8.10;;
44228;SDS011;29904;51.058;5.378;2023-07-20T06:40:18;10.85;;;8.00;;
44228;SDS011;29904;51.058;5.378;2023-07-20T06:42:44;14.02;;;9.52;;
44228;SDS011;29904;51.058;5.378;2023-07-20T06:45:09;10.88;;;8.20;;
44228;SDS011;29904;51.058;5.378;2023-07-20T06:47:38;11.32;;;8.38;;
44228;SDS011;29904;51.058;5.378;2023-07-20T06:50:07;11.55;;;7.82;;
44228;SDS011;29904;51.058;5.378;2023-07-20T06:52:34;11.18;;;7.90;;
44228;SDS011;29904;51.058;5.378;2023-07-20T06:55:00;10.98;;;7.55;;
44228;SDS011;29904;51.058;5.378;2023-07-20T06:57:26;10.53;;;7.40;;
44228;SDS011;29904;51.058;5.378;2023-07-20T06:59:51;10.95;;;7.40;;
44228;SDS011;29904;51.058;5.378;2023-07-20T07:02:18;10.77;;;7.40;;
44228;SDS011;29904;51.058;5.378;2023-07-20T07:04:44;10.55;;;7.55;;
44228;SDS011;29904;51.058;5.378;2023-07-20T07:07:10;9.90;;;6.63;;
44228;SDS011;29904;51.058;5.378;2023-07-20T07:09:36;9.27;;;6.70;;
44228;SDS011;29904;51.058;5.378;2023-07-20T07:12:02;8.93;;;6.60;;
44228;SDS011;29904;51.058;5.378;2023-07-20T07:14:28;11.37;;;6.87;;
44228;SDS011;29904;51.058;5.378;2023-07-20T07:16:53;10.10;;;7.65;;
44228;SDS011;29904;51.058;5.378;2023-07-20T07:19:19;9.73;;;7.00;;
44228;SDS011;29904;51.058;5.378;2023-07-20T07:21:45;9.57;;;7.82;;
44228;SDS011;29904;51.058;5.378;2023-07-20T07:24:10;10.82;;;7.80;;
44228;SDS011;29904;51.058;5.378;2023-07-20T07:26:36;11.90;;;8.10;;
44228;SDS011;29904;51.058;5.378;2023-07-20T07:29:02;10.15;;;7.30;;
44228;SDS011;29904;51.058;5.378;2023-07-20T07:31:29;8.87;;;6.40;;
44228;SDS011;29904;51.058;5.378;2023-07-20T07:33:56;8.50;;;5.70;;
44228;SDS011;29904;51.058;5.378;2023-07-20T07:36:22;6.33;;;4.90;;
44228;SDS011;29904;51.058;5.378;2023-07-20T07:38:50;6.43;;;5.00;;
44228;SDS011;29904;51.058;5.378;2023-07-20T07:41:16;7.00;;;5.25;;
44228;SDS011;29904;51.058;5.378;2023-07-20T07:43:41;7.55;;;5.90;;
44228;SDS011;29904;51.058;5.378;2023-07-20T07:46:07;8.33;;;5.73;;
44228;SDS011;29904;51.058;5.378;2023-07-20T07:48:33;8.43;;;6.47;;
44228;SDS011;29904;51.058;5.378;2023-07-20T07:50:59;8.23;;;6.07;;
44228;SDS011;29904;51.058;5.378;2023-07-20T07:53:25;8.93;;;6.63;;
44228;SDS011;29904;51.058;5.378;2023-07-20T07:55:51;6.37;;;5.33;;
44228;SDS011;29904;51.058;5.378;2023-07-20T07:58:19;5.72;;;4.55;;
44228;SDS011;29904;51.058;5.378;2023-07-20T08:00:45;5.27;;;4.40;;
44228;SDS011;29904;51.058;5.378;2023-07-20T08:03:12;6.93;;;5.18;;
44228;SDS011;29904;51.058;5.378;2023-07-20T08:05:38;6.88;;;5.15;;
44228;SDS011;29904;51.058;5.378;2023-07-20T08:08:04;7.40;;;5.43;;
44228;SDS011;29904;51.058;5.378;2023-07-20T08:10:30;6.00;;;4.30;;
44228;SDS011;29904;51.058;5.378;2023-07-20T08:12:56;4.78;;;3.10;;
44228;SDS011;29904;51.058;5.378;2023-07-20T08:15:22;2.40;;;2.20;;
44228;SDS011;29904;51.058;5.378;2023-07-20T08:17:48;3.08;;;2.58;;
44228;SDS011;29904;51.058;5.378;2023-07-20T08:20:16;3.53;;;2.20;;
44228;SDS011;29904;51.058;5.378;2023-07-20T08:22:43;2.95;;;2.42;;
44228;SDS011;29904;51.058;5.378;2023-07-20T08:25:08;3.70;;;2.75;;
44228;SDS011;29904;51.058;5.378;2023-07-20T08:27:34;4.05;;;2.83;;
44228;SDS011;29904;51.058;5.378;2023-07-20T08:30:00;4.20;;;3.47;;
44228;SDS011;29904;51.058;5.378;2023-07-20T08:32:26;4.78;;;3.10;;
44228;SDS011;29904;51.058;5.378;2023-07-20T08:34:52;3.83;;;2.90;;
44228;SDS011;29904;51.058;5.378;2023-07-20T08:37:17;3.92;;;2.67;;
44228;SDS011;29904;51.058;5.378;2023-07-20T08:39:43;3.33;;;2.25;;
44228;SDS011;29904;51.058;5.378;2023-07-20T08:42:09;3.22;;;2.55;;
44228;SDS011;29904;51.058;5.378;2023-07-20T08:44:36;3.20;;;2.67;;
44228;SDS011;29904;51.058;5.378;2023-07-20T08:47:04;2.47;;;2.00;;
44228;SDS011;29904;51.058;5.378;2023-07-20T08:49:32;4.25;;;2.55;;
44228;SDS011;29904;51.058;5.378;2023-07-20T08:51:58;3.83;;;2.67;;
44228;SDS011;29904;51.058;5.378;2023-07-20T08:54:26;3.28;;;2.13;;
44228;SDS011;29904;51.058;5.378;2023-07-20T08:56:55;3.20;;;1.80;;
44228;SDS011;29904;51.058;5.378;2023-07-20T08:59:22;1.85;;;1.58;;
44228;SDS011;29904;51.058;5.378;2023-07-20T09:01:49;5.07;;;2.90;;
44228;SDS011;29904;51.058;5.378;2023-07-20T09:04:19;3.72;;;2.30;;
44228;SDS011;29904;51.058;5.378;2023-07-20T09:06:44;3.90;;;2.50;;
44228;SDS011;29904;51.058;5.378;2023-07-20T09:09:10;3.45;;;2.65;;
44228;SDS011;29904;51.058;5.378;2023-07-20T09:11:36;2.85;;;2.20;;
44228;SDS011;29904;51.058;5.378;2023-07-20T09:14:05;3.00;;;1.35;;
44228;SDS011;29904;51.058;5.378;2023-07-20T09:16:32;1.60;;;1.10;;
44228;SDS011;29904;51.058;5.378;2023-07-20T09:18:58;1.88;;;1.00;;
44228;SDS011;29904;51.058;5.378;2023-07-20T09:21:24;1.65;;;1.27;;
44228;SDS011;29904;51.058;5.378;2023-07-20T09:23:56;2.38;;;1.38;;
44228;SDS011;29904;51.058;5.378;2023-07-20T09:26:22;1.90;;;1.30;;
44228;SDS011;29904;51.058;5.378;2023-07-20T09:28:54;1.47;;;1.30;;
44228;SDS011;29904;51.058;5.378;2023-07-20T09:31:21;1.55;;;1.30;;
44228;SDS011;29904;51.058;5.378;2023-07-20T09:33:48;3.35;;;1.40;;
44228;SDS011;29904;51.058;5.378;2023-07-20T09:36:15;2.53;;;1.40;;
44228;SDS011;29904;51.058;5.378;2023-07-20T09:38:44;1.90;;;1.27;;
44228;SDS011;29904;51.058;5.378;2023-07-20T09:41:14;1.20;;;1.00;;
44228;SDS011;29904;51.058;5.378;2023-07-20T09:43:40;1.70;;;1.10;;
44228;SDS011;29904;51.058;5.378;2023-07-20T09:46:07;2.05;;;1.10;;
44228;SDS011;29904;51.058;5.378;2023-07-20T09:48:33;2.60;;;1.10;;
44228;SDS011;29904;51.058;5.378;2023-07-20T09:50:58;1.55;;;1.23;;
44228;SDS011;29904;51.058;5.378;2023-07-20T09:53:26;1.83;;;1.40;;
44228;SDS011;29904;51.058;5.378;2023-07-20T09:55:52;3.28;;;1.60;;
44228;SDS011;29904;51.058;5.378;2023-07-20T09:58:19;1.90;;;1.70;;
44228;SDS011;29904;51.058;5.378;2023-07-20T10:00:47;1.83;;;1.27;;
44228;SDS011;29904;51.058;5.378;2023-07-20T10:03:18;1.52;;;1.10;;
44228;SDS011;29904;51.058;5.378;2023-07-20T10:05:54;2.30;;;1.30;;
44228;SDS011;29904;51.058;5.378;2023-07-20T10:08:24;2.17;;;1.13;;
44228;SDS011;29904;51.058;5.378;2023-07-20T10:10:51;2.17;;;1.30;;
44228;SDS011;29904;51.058;5.378;2023-07-20T10:13:17;2.45;;;1.20;;
44228;SDS011;29904;51.058;5.378;2023-07-20T10:15:47;1.48;;;1.13;;
44228;SDS011;29904;51.058;5.378;2023-07-20T10:18:23;2.85;;;1.25;;
44228;SDS011;29904;51.058;5.378;2023-07-20T10:20:54;1.93;;;1.07;;
44228;SDS011;29904;51.058;5.378;2023-07-20T10:23:22;1.10;;;0.85;;
44228;SDS011;29904;51.058;5.378;2023-07-20T10:25:48;0.80;;;0.70;;
44228;SDS011;29904;51.058;5.378;2023-07-20T10:28:15;1.50;;;1.00;;
44228;SDS011;29904;51.058;5.378;2023-07-20T10:30:41;1.63;;;0.88;;
44228;SDS011;29904;51.058;5.378;2023-07-20T10:33:08;1.50;;;1.00;;
44228;SDS011;29904;51.058;5.378;2023-07-20T10:41:27;1.58;;;0.82;;
44228;SDS011;29904;51.058;5.378;2023-07-20T10:44:09;1.67;;;0.80;;
44228;SDS011;29904;51.058;5.378;2023-07-20T10:49:04;1.17;;;0.80;;
44228;SDS011;29904;51.058;5.378;2023-07-20T10:51:41;2.15;;;1.00;;
44228;SDS011;29904;51.058;5.378;2023-07-20T10:54:09;1.33;;;0.80;;
44228;SDS011;29904;51.058;5.378;2023-07-20T10:56:41;2.60;;;0.88;;
44228;SDS011;29904;51.058;5.378;2023-07-20T10:59:17;1.60;;;0.85;;
44228;SDS011;29904;51.058;5.378;2023-07-20T11:01:48;1.20;;;0.93;;
44228;SDS011;29904;51.058;5.378;2023-07-20T11:04:15;2.10;;;1.20;;
44228;SDS011;29904;51.058;5.378;2023-07-20T11:06:43;1.15;;;0.93;;
44228;SDS011;29904;51.058;5.378;2023-07-20T11:09:14;1.10;;;0.70;;
44228;SDS011;29904;51.058;5.378;2023-07-20T11:11:41;1.70;;;0.70;;
44228;SDS011;29904;51.058;5.378;2023-07-20T11:14:21;1.33;;;0.80;;
44228;SDS011;29904;51.058;5.378;2023-07-20T11:16:49;1.45;;;0.98;;
44228;SDS011;29904;51.058;5.378;2023-07-20T11:19:23;1.02;;;0.80;;
44228;SDS011;29904;51.058;5.378;2023-07-20T11:21:50;1.25;;;0.82;;
44228;SDS011;29904;51.058;5.378;2023-07-20T11:24:18;1.45;;;0.80;;
44228;SDS011;29904;51.058;5.378;2023-07-20T11:26:51;1.90;;;0.70;;
44228;SDS011;29904;51.058;5.378;2023-07-20T11:29:18;1.40;;;0.80;;
44228;SDS011;29904;51.058;5.378;2023-07-20T11:31:46;1.80;;;0.70;;
44228;SDS011;29904;51.058;5.378;2023-07-20T11:34:16;1.40;;;0.73;;
44228;SDS011;29904;51.058;5.378;2023-07-20T11:36:44;1.10;;;0.70;;
44228;SDS011;29904;51.058;5.378;2023-07-20T11:39:12;1.10;;;0.70;;
44228;SDS011;29904;51.058;5.378;2023-07-20T11:41:39;0.93;;;0.60;;
44228;SDS011;29904;51.058;5.378;2023-07-20T11:44:21;1.83;;;0.83;;
44228;SDS011;29904;51.058;5.378;2023-07-20T11:47:07;1.52;;;0.70;;
44228;SDS011;29904;51.058;5.378;2023-07-20T11:49:35;1.90;;;0.82;;
44228;SDS011;29904;51.058;5.378;2023-07-20T11:52:03;1.40;;;0.82;;
44228;SDS011;29904;51.058;5.378;2023-07-20T11:54:30;1.00;;;0.80;;
44228;SDS011;29904;51.058;5.378;2023-07-20T11:57:00;0.75;;;0.70;;
44228;SDS011;29904;51.058;5.378;2023-07-20T11:59:26;1.30;;;0.80;;
44228;SDS011;29904;51.058;5.378;2023-07-20T12:01:52;2.20;;;1.17;;
44228;SDS011;29904;51.058;5.378;2023-07-20T12:04:18;2.03;;;0.80;;
44228;SDS011;29904;51.058;5.378;2023-07-20T12:06:44;1.23;;;0.80;;
44228;SDS011;29904;51.058;5.378;2023-07-20T12:09:13;2.58;;;0.70;;
44228;SDS011;29904;51.058;5.378;2023-07-20T12:11:42;1.58;;;0.90;;
44228;SDS011;29904;51.058;5.378;2023-07-20T12:14:09;1.33;;;0.80;;
44228;SDS011;29904;51.058;5.378;2023-07-20T12:16:36;2.03;;;0.83;;
44228;SDS011;29904;51.058;5.378;2023-07-20T12:19:06;1.58;;;0.90;;
44228;SDS011;29904;51.058;5.378;2023-07-20T12:21:33;1.60;;;0.90;;
44228;SDS011;29904;51.058;5.378;2023-07-20T12:24:01;1.60;;;0.98;;
44228;SDS011;29904;51.058;5.378;2023-07-20T12:26:29;1.95;;;0.90;;
44228;SDS011;29904;51.058;5.378;2023-07-20T12:28:56;2.90;;;0.90;;
44228;SDS011;29904;51.058;5.378;2023-07-20T12:31:22;1.80;;;1.00;;
44228;SDS011;29904;51.058;5.378;2023-07-20T12:33:49;1.42;;;0.80;;
44228;SDS011;29904;51.058;5.378;2023-07-20T12:36:15;2.15;;;0.90;;
44228;SDS011;29904;51.058;5.378;2023-07-20T12:38:42;1.48;;;0.93;;
44228;SDS011;29904;51.058;5.378;2023-07-20T12:41:09;1.60;;;1.00;;
44228;SDS011;29904;51.058;5.378;2023-07-20T12:43:37;1.60;;;1.00;;
44228;SDS011;29904;51.058;5.378;2023-07-20T12:46:03;2.17;;;0.80;;
44228;SDS011;29904;51.058;5.378;2023-07-20T12:48:29;1.52;;;0.70;;
44228;SDS011;29904;51.058;5.378;2023-07-20T12:50:55;1.60;;;0.93;;
44228;SDS011;29904;51.058;5.378;2023-07-20T12:53:21;1.35;;;0.93;;
44228;SDS011;29904;51.058;5.378;2023-07-20T12:55:47;3.40;;;0.90;;
44228;SDS011;29904;51.058;5.378;2023-07-20T12:58:12;1.70;;;0.90;;
44228;SDS011;29904;51.058;5.378;2023-07-20T13:00:39;1.80;;;0.93;;
44228;SDS011;29904;51.058;5.378;2023-07-20T13:03:05;1.83;;;0.90;;
44228;SDS011;29904;51.058;5.378;2023-07-20T13:05:31;1.70;;;0.80;;
44228;SDS011;29904;51.058;5.378;2023-07-20T13:07:57;2.22;;;0.90;;
44228;SDS011;29904;51.058;5.378;2023-07-20T13:10:24;1.85;;;0.90;;
44228;SDS011;29904;51.058;5.378;2023-07-20T13:12:50;2.53;;;0.88;;
44228;SDS011;29904;51.058;5.378;2023-07-20T13:15:16;1.38;;;0.70;;
44228;SDS011;29904;51.058;5.378;2023-07-20T13:17:42;2.03;;;0.77;;
44228;SDS011;29904;51.058;5.378;2023-07-20T13:20:08;2.17;;;1.00;;
44228;SDS011;29904;51.058;5.378;2023-07-20T13:22:36;1.60;;;0.90;;
44228;SDS011;29904;51.058;5.378;2023-07-20T13:25:05;1.67;;;0.90;;
44228;SDS011;29904;51.058;5.378;2023-07-20T13:27:32;0.90;;;0.70;;
44228;SDS011;29904;51.058;5.378;2023-07-20T13:29:59;1.00;;;0.65;;
44228;SDS011;29904;51.058;5.378;2023-07-20T13:32:26;1.20;;;0.80;;
44228;SDS011;29904;51.058;5.378;2023-07-20T13:34:52;1.63;;;0.70;;
44228;SDS011;29904;51.058;5.378;2023-07-20T13:37:18;1.63;;;0.73;;
44228;SDS011;29904;51.058;5.378;2023-07-20T13:39:44;1.57;;;0.80;;
44228;SDS011;29904;51.058;5.378;2023-07-20T13:42:10;1.75;;;0.90;;
44228;SDS011;29904;51.058;5.378;2023-07-20T13:44:37;1.55;;;0.93;;
44228;SDS011;29904;51.058;5.378;2023-07-20T13:47:03;0.85;;;0.65;;
44228;SDS011;29904;51.058;5.378;2023-07-20T13:49:33;0.82;;;0.70;;
44228;SDS011;29904;51.058;5.378;2023-07-20T13:51:58;1.00;;;0.70;;
44228;SDS011;29904;51.058;5.378;2023-07-20T13:54:25;2.10;;;0.82;;
44228;SDS011;29904;51.058;5.378;2023-07-20T13:56:51;1.50;;;0.80;;
44228;SDS011;29904;51.058;5.378;2023-07-20T13:59:17;1.87;;;0.77;;
44228;SDS011;29904;51.058;5.378;2023-07-20T14:01:43;1.27;;;0.80;;
44228;SDS011;29904;51.058;5.378;2023-07-20T14:04:09;1.17;;;0.70;;
44228;SDS011;29904;51.058;5.378;2023-07-20T14:06:34;1.40;;;0.70;;
44228;SDS011;29904;51.058;5.378;2023-07-20T14:09:01;1.70;;;0.70;;
44228;SDS011;29904;51.058;5.378;2023-07-20T14:11:28;0.90;;;0.70;;
44228;SDS011;29904;51.058;5.378;2023-07-20T14:13:54;0.70;;;0.70;;
44228;SDS011;29904;51.058;5.378;2023-07-20T14:16:20;1.50;;;0.70;;
44228;SDS011;29904;51.058;5.378;2023-07-20T14:18:47;1.38;;;0.70;;
44228;SDS011;29904;51.058;5.378;2023-07-20T14:21:13;1.13;;;0.70;;
44228;SDS011;29904;51.058;5.378;2023-07-20T14:23:40;2.27;;;0.70;;
44228;SDS011;29904;51.058;5.378;2023-07-20T14:26:05;0.95;;;0.80;;
44228;SDS011;29904;51.058;5.378;2023-07-20T14:28:32;2.07;;;0.70;;
44228;SDS011;29904;51.058;5.378;2023-07-20T14:30:58;1.50;;;0.80;;
44228;SDS011;29904;51.058;5.378;2023-07-20T14:33:24;1.60;;;0.63;;
44228;SDS011;29904;51.058;5.378;2023-07-20T14:35:50;1.48;;;0.70;;
44228;SDS011;29904;51.058;5.378;2023-07-20T14:38:15;2.13;;;0.77;;
44228;SDS011;29904;51.058;5.378;2023-07-20T14:40:41;3.08;;;0.80;;
44228;SDS011;29904;51.058;5.378;2023-07-20T14:43:07;1.60;;;0.80;;
44228;SDS011;29904;51.058;5.378;2023-07-20T14:45:33;1.42;;;0.73;;
44228;SDS011;29904;51.058;5.378;2023-07-20T14:47:58;1.77;;;0.90;;
44228;SDS011;29904;51.058;5.378;2023-07-20T14:50:24;1.02;;;0.60;;
44228;SDS011;29904;51.058;5.378;2023-07-20T14:52:50;2.30;;;0.80;;
44228;SDS011;29904;51.058;5.378;2023-07-20T14:55:16;1.92;;;0.90;;
44228;SDS011;29904;51.058;5.378;2023-07-20T14:57:42;1.33;;;0.82;;
44228;SDS011;29904;51.058;5.378;2023-07-20T15:00:08;1.60;;;0.80;;
44228;SDS011;29904;51.058;5.378;2023-07-20T15:02:37;1.50;;;0.90;;
44228;SDS011;29904;51.058;5.378;2023-07-20T15:05:03;1.73;;;0.80;;